• Join FlightAware (Why Join?)
  • Login
  • US Flag 
04:00AM EDT


 

Airport Tracker/Info


-or-


 

Live Flight TrackerFlight Track Log ✈ N41NW ✈ 30-Nov-2011 ✈ KRDU - KGTU

Flight Track Log - Related Links

Times and Time Zones

All times are in EST time to prevent confusion due to time zone crossing. See the N41NW flight status page for this flight to view local times or setup timezone preferences in your user account.

Time Position Orientation Groundspeed Altitude Reporting Facility
EST Latitude Longitude Course Direction KTS MPH feet Rate Location/Type
01:11PM 35.8561 -78.8083 254° West 191 220 1,400  Level Washington Center
01:12PM 35.8397 -78.8769 266° West 221 254 5,100 3,840 Climbing Washington Center
01:13PM 35.8350 -78.9689 272° West 249 287 10,000 3,540 Climbing Washington Center
01:14PM 35.8369 -79.0536 266° West 249 287 13,200 2,520 Climbing Washington Center
01:15PM 35.8325 -79.1328 268° West 249 287 15,200 2,460 Climbing Washington Center
01:16PM 35.8292 -79.2428 269° West 285 328 18,100 2,640 Climbing Washington Center
01:17PM 35.8283 -79.3400 263° West 291 335 20,500 1,860 Climbing Washington Center
01:19PM 35.8136 -79.4961 266° West 298 343 23,000 1,320 Climbing Atlanta Center
01:20PM 35.8075 -79.6167 280° West 342 394 24,000 1,500 Climbing Atlanta Center
01:21PM 35.8244 -79.7411 271° West 342 394 26,000 960 Climbing Atlanta Center
01:22PM 35.8267 -79.8642 246° West 356 410 26,000 480 Level Atlanta Center
01:23PM 35.7828 -79.9842 240° Southwest 366 421 27,000 1,560 Climbing Atlanta Center
01:24PM 35.7339 -80.0889 239° Southwest 366 421 29,200 1,440 Climbing Atlanta Center
01:25PM 35.6850 -80.1908 240° Southwest 355 409 29,900 1,080 Climbing Atlanta Center
01:26PM 35.6342 -80.3006 242° Southwest 368 423 31,400 960 Climbing Atlanta Center
01:27PM 35.5875 -80.4100 241° Southwest 368 423 31,900 660 Climbing Atlanta Center
01:28PM 35.5383 -80.5192 242° Southwest 368 423 32,800 1,080 Climbing Atlanta Center
01:29PM 35.4972 -80.6128 243° Southwest 362 417 34,100 1,080 Climbing Atlanta Center
01:30PM 35.4522 -80.7194 242° Southwest 353 406 35,000 900 Climbing Atlanta Center
01:31PM 35.4089 -80.8206 258° West 353 406 36,000 900 Climbing Atlanta Center
01:32PM 35.3889 -80.9333 253° West 341 392 36,800 540 Climbing Atlanta Center
01:33PM 35.3586 -81.0542 257° West 341 392 37,100 120 Climbing Atlanta Center
01:34PM 35.3364 -81.1694 256° West 347 399 37,100  Level Atlanta Center
01:35PM 35.3119 -81.2900 258° West 360 414 37,200 420 Climbing Atlanta Center
01:36PM 35.2917 -81.4078 254° West 360 414 38,000 360 Climbing Atlanta Center
01:37PM 35.2647 -81.5231 257° West 360 414 38,000  Level Atlanta Center
01:38PM 35.2422 -81.6408 256° West 360 414 38,000  Level Atlanta Center
01:39PM 35.2211 -81.7481 256° West 360 414 38,000  Level Atlanta Center
01:40PM 35.1964 -81.8708 256° West 366 421 38,000  Level Atlanta Center
01:41PM 35.1714 -81.9933 255° West 371 427 38,000  Level Atlanta Center
01:42PM 35.1442 -82.1161 255° West 371 427 38,000  Level Atlanta Center
01:43PM 35.1186 -82.2358 254° West 371 427 38,000  Level Atlanta Center
01:44PM 35.0911 -82.3508 256° West 371 427 38,000  Level Atlanta Center
01:45PM 35.0636 -82.4858 255° West 371 427 38,000  Level Atlanta Center
01:46PM 35.0381 -82.6056 255° West 371 427 38,000  Level Atlanta Center
01:47PM 35.0122 -82.7250 254° West 371 427 38,000  Level Atlanta Center
01:48PM 34.9842 -82.8472 256° West 371 427 38,000  Level Atlanta Center
01:49PM 34.9603 -82.9667 255° West 371 427 38,000  Level Atlanta Center
01:50PM 34.9342 -83.0886 253° West 376 433 38,100  Climbing Atlanta Center
01:51PM 34.9039 -83.2056 257° West 371 427 38,100 -60 Level Atlanta Center
01:52PM 34.8817 -83.3272 254° West 371 427 38,000 -60 Descending Atlanta Center
01:53PM 34.8531 -83.4464 254° West 378 435 38,000  Level Atlanta Center
01:54PM 34.8264 -83.5631 253° West 372 428 38,000  Level Atlanta Center
01:55PM 34.7975 -83.6797 256° West 367 422 38,000  Level Atlanta Center
01:56PM 34.7750 -83.7883 255° West 360 414 38,000  Level Atlanta Center
01:57PM 34.7481 -83.9072 255° West 373 429 38,000  Level Atlanta Center
01:58PM 34.7208 -84.0311 254° West 378 435 38,000  Level Atlanta Center
01:59PM 34.6936 -84.1475 255° West 378 435 38,000  Level Atlanta Center
02:00PM 34.6686 -84.2636 254° West 372 428 38,000  Level Atlanta Center
02:01PM 34.6411 -84.3822 254° West 367 422 38,000  Level Atlanta Center
02:02PM 34.6136 -84.4981 255° West 367 422 38,000  Level Atlanta Center
02:03PM 34.5881 -84.6167 254° West 367 422 38,000  Level Atlanta Center
02:04PM 34.5603 -84.7350 254° West 367 422 38,000  Level Atlanta Center
02:05PM 34.5283 -84.8683 255° West 367 422 38,000  Level Atlanta Center
02:06PM 34.5022 -84.9864 254° West 367 422 38,000  Level Atlanta Center
02:07PM 34.4742 -85.1072 250° West 367 422 38,000  Level Atlanta Center
02:08PM 34.4419 -85.2150 254° West 374 430 38,000  Level Atlanta Center
02:09PM 34.4136 -85.3356 256° West 379 436 38,000  Level Atlanta Center
02:10PM 34.3850 -85.4711 254° West 379 436 38,000  Level Atlanta Center
02:11PM 34.3564 -85.5939 254° West 379 436 38,000  Level Atlanta Center
02:12PM 34.3275 -85.7139 253° West 372 428 38,000  Level Atlanta Center
02:13PM 34.2967 -85.8392 250° West 383 441 38,000  Level Atlanta Center
02:14PM 34.2658 -85.9417 255° West 378 435 38,000  Level Atlanta Center
02:15PM 34.2389 -86.0642 251° West 378 435 38,000  Level Atlanta Center
02:16PM 34.2056 -86.1839 253° West 378 435 38,000  Level Atlanta Center
02:17PM 34.1742 -86.3061 254° West 378 435 38,000  Level Atlanta Center
02:18PM 34.1447 -86.4283 253° West 378 435 38,000  Level Atlanta Center
02:19PM 34.1131 -86.5503 254° West 378 435 38,000  Level Atlanta Center
02:20PM 34.0833 -86.6747 252° West 378 435 38,000  Level Atlanta Center
02:21PM 34.0514 -86.7942 253° West 378 435 38,000  Level Atlanta Center
02:22PM 34.0017 -86.9847 251° West 384 442 38,000  Level Memphis Center
02:23PM 33.9692 -87.1011 254° West 379 436 38,000  Level Memphis Center
02:24PM 33.9353 -87.2403 253° West 385 443 38,000  Level Memphis Center
02:25PM 33.9047 -87.3614 252° West 390 449 38,000  Level Memphis Center
02:26PM 33.8703 -87.4878 254° West 390 449 38,000  Level Memphis Center
02:27PM 33.8417 -87.6086 250° West 382 440 38,000  Level Memphis Center
02:28PM 33.8086 -87.7197 252° West 382 440 38,000  Level Memphis Center
02:29PM 33.7719 -87.8583 253° West 392 451 38,000  Level Memphis Center
02:30PM 33.7408 -87.9842 251° West 392 451 38,000  Level Memphis Center
02:31PM 33.7056 -88.1075 252° West 397 457 38,000  Level Memphis Center
02:32PM 33.6725 -88.2331 251° West 397 457 38,000  Level Memphis Center
02:33PM 33.6369 -88.3586 251° West 397 457 38,000  Level Memphis Center
02:34PM 33.6014 -88.4842 252° West 402 463 38,000  Level Memphis Center
02:35PM 33.5675 -88.6094 255° West 402 463 38,000  Level Memphis Center
02:36PM 33.5381 -88.7397 251° West 402 463 38,000  Level Memphis Center
02:37PM 33.5019 -88.8650 252° West 402 463 38,000  Level Memphis Center
02:38PM 33.4661 -88.9950 252° West 402 463 38,000  Level Memphis Center
02:39PM 33.4319 -89.1200 251° West 408 470 38,000  Level Memphis Center
02:40PM 33.3956 -89.2475 251° West 408 470 38,000  Level Memphis Center
02:41PM 33.3589 -89.3772 251° West 408 470 38,000  Level Memphis Center
02:42PM 33.3222 -89.5044 252° West 408 470 38,000  Level Memphis Center
02:43PM 33.2917 -89.6192 252° West 408 470 38,000  Level Memphis Center
02:44PM 33.2569 -89.7436 251° West 408 470 38,000  Level Memphis Center
02:45PM 33.2200 -89.8706 251° West 408 470 38,000  Level Memphis Center
02:46PM 33.1828 -89.9997 251° West 408 470 38,000  Level Memphis Center
02:47PM 33.1456 -90.1264 251° West 408 470 38,000  Level Memphis Center
02:48PM 33.1081 -90.2531 252° West 408 470 38,000  Level Memphis Center
02:49PM 33.0728 -90.3819 250° West 408 470 38,000  Level Memphis Center
02:50PM 33.0350 -90.5083 251° West 408 470 38,000  Level Memphis Center
02:51PM 32.9994 -90.6347 249° West 408 470 38,000  Level Memphis Center
02:52PM 32.9614 -90.7558 251° West 408 470 38,000  Level Memphis Center
02:53PM 32.9214 -90.8919 251° West 408 470 38,000  Level Memphis Center
02:54PM 32.8853 -91.0153 250° West 408 470 38,000  Level Memphis Center
02:55PM 32.8511 -91.1289 251° West 394 453 38,000  Level Memphis Center
02:56PM 32.8192 -91.2397 252° West 379 436 38,000  Level Memphis Center
02:59PM 32.7500 -91.4858 249° West 344 396 38,100  Climbing Fort Worth Center
03:00PM 32.7136 -91.5992 250° West 356 410 38,100 -60 Level Fort Worth Center
03:01PM 32.6772 -91.7175 249° West 368 423 38,000  Descending Fort Worth Center
03:02PM 32.6406 -91.8283 251° West 380 437 38,200 900 Climbing Fort Worth Center
03:03PM 32.6061 -91.9489 250° West 375 432 39,900 840 Climbing Fort Worth Center
03:04PM 32.5731 -92.0544 250° West 362 417 39,900  Level Fort Worth Center
03:05PM 32.5383 -92.1672 250° West 362 417 40,000  Climbing Fort Worth Center
03:06PM 32.5033 -92.2828 250° West 362 417 40,000  Level Fort Worth Center
03:07PM 32.4683 -92.3978 248° West 367 422 40,000  Level Fort Worth Center
03:08PM 32.4347 -92.4983 250° West 372 428 40,000  Level Fort Worth Center
03:09PM 32.3939 -92.6333 251° West 391 450 40,000  Level Fort Worth Center
03:10PM 32.3589 -92.7506 249° West 398 458 40,000  Level Fort Worth Center
03:11PM 32.3194 -92.8706 250° West 392 451 40,100  Climbing Fort Worth Center
03:12PM 32.2839 -92.9856 250° West 392 451 40,000 -60 Descending Fort Worth Center
03:13PM 32.2536 -93.0828 247° West 392 451 40,000  Level Fort Worth Center
03:14PM 32.2097 -93.2025 250° West 385 443 40,000  Level Fort Worth Center
03:15PM 32.1739 -93.3197 250° West 385 443 40,000  Level Fort Worth Center
03:16PM 32.1325 -93.4539 250° West 399 459 40,000  Level Fort Worth Center
03:17PM 32.0944 -93.5758 249° West 394 453 40,000  Level Fort Worth Center
03:18PM 32.0561 -93.6925 249° West 394 453 40,000  Level Fort Worth Center
03:19PM 32.0217 -93.7994 248° West 394 453 40,000  Level Fort Worth Center
03:20PM 31.9831 -93.9133 250° West 394 453 40,000  Level Fort Worth Center
03:21PM 31.9447 -94.0350 248° West 394 453 40,000  Level Fort Worth Center
03:22PM 31.9039 -94.1539 249° West 394 453 40,000  Level Fort Worth Center
03:23PM 31.8653 -94.2725 249° West 394 453 40,100  Climbing Fort Worth Center
03:24PM 31.8264 -94.3914 250° West 394 453 40,100 -60 Level Fort Worth Center
03:25PM 31.7894 -94.5075 248° West 394 453 40,000 -60 Descending Fort Worth Center
03:26PM 31.7483 -94.6258 249° West 394 453 40,000  Level Fort Worth Center
03:27PM 31.7092 -94.7444 249° West 394 453 40,000  Level Fort Worth Center
03:28PM 31.6697 -94.8625 249° West 394 453 40,000  Level Fort Worth Center
03:29PM 31.6303 -94.9808 248° West 394 453 40,000  Level Fort Worth Center
03:30PM 31.5908 -95.0964 248° West 394 453 40,000  Level Fort Worth Center
03:31PM 31.5492 -95.2144 247° West 394 453 40,000  Level Fort Worth Center
03:32PM 31.5092 -95.3275 248° West 391 450 40,000  Level Fort Worth Center
03:33PM 31.4672 -95.4478 247° West 386 444 40,000  Level Fort Worth Center
03:34PM 31.4253 -95.5631 249° West 386 444 40,000  Level Fort Worth Center
03:35PM 31.3631 -95.7569 248° West 383 441 40,000  Level Houston Center
03:36PM 31.3219 -95.8742 249° West 389 448 40,000  Level Houston Center
03:37PM 31.2828 -95.9917 247° West 389 448 40,000  Level Houston Center
03:38PM 31.2414 -96.1064 247° West 389 448 40,000 -360 Level Houston Center
03:39PM 31.1978 -96.2256 247° West 389 448 39,300 -1,560 Descending Houston Center
03:40PM 31.1539 -96.3472 250° West 406 467 36,900 -2,940 Descending Houston Center
03:41PM 31.1142 -96.4739 247° West 412 474 33,500 -3,600 Descending Houston Center
03:42PM 31.0653 -96.6072 248° West 434 499 29,700 -3,480 Descending Houston Center
03:43PM 31.0164 -96.7453 248° West 458 527 26,600 -2,940 Descending Houston Center
03:44PM 30.9697 -96.8808 246° West 458 527 23,900 -3,300 Descending Houston Center
03:45PM 30.9208 -97.0064 249° West 450 518 20,000 -3,360 Descending Houston Center
03:46PM 30.8831 -97.1181 251° West 427 491 17,200 -3,300 Descending Houston Center
03:47PM 30.8469 -97.2369 253° West 407 468 13,400 -3,420 Descending Houston Center
03:48PM 30.8172 -97.3514 251° West 365 420 10,400 -3,000 Descending Houston Center
03:49PM 30.7928 -97.4319 249° West 302 348 7,400 -2,820 Descending Houston Center
03:50PM 30.7689 -97.5031 255° West 256 295 4,800 -1,860 Descending Houston Center
03:51PM 30.7533 -97.5722 275° West 239 275 3,700 -900 Descending Houston Center
03:52PM 30.7575 -97.6231 251° West 188 216 3,000 -780 Descending Houston Center
03:53PM 30.7453 -97.6636 199° South 140 161 2,200 -900 Descending Houston Center
03:54PM 30.7133 -97.6761 200° South 115 132 1,300 -660 Descending Houston Center
03:55PM 30.6836 -97.6889 132° Southeast 122 140 900 -420 Descending Houston Center
04:02PM 30.6667 -97.6667 132° Southeast  Level FlightAware Approximate